sensor_id;sensor_type;location;lat;lon;timestamp;P1;durP1;ratioP1;P2;durP2;ratioP2
38717;SDS011;24468;52.128;9.278;2023-08-17T00:01:24;3.65;;;2.08;;
38717;SDS011;24468;52.128;9.278;2023-08-17T00:03:49;4.30;;;2.25;;
38717;SDS011;24468;52.128;9.278;2023-08-17T00:06:15;3.47;;;2.20;;
38717;SDS011;24468;52.128;9.278;2023-08-17T00:08:41;3.05;;;1.80;;
38717;SDS011;24468;52.128;9.278;2023-08-17T00:11:07;2.55;;;1.65;;
38717;SDS011;24468;52.128;9.278;2023-08-17T00:13:33;3.20;;;1.48;;
38717;SDS011;24468;52.128;9.278;2023-08-17T00:16:00;7.60;;;2.38;;
38717;SDS011;24468;52.128;9.278;2023-08-17T00:18:25;4.05;;;2.08;;
38717;SDS011;24468;52.128;9.278;2023-08-17T00:20:51;2.95;;;1.70;;
38717;SDS011;24468;52.128;9.278;2023-08-17T00:23:17;4.50;;;2.25;;
38717;SDS011;24468;52.128;9.278;2023-08-17T00:25:42;6.03;;;1.95;;
38717;SDS011;24468;52.128;9.278;2023-08-17T00:28:08;3.83;;;1.75;;
38717;SDS011;24468;52.128;9.278;2023-08-17T00:30:34;3.53;;;1.40;;
38717;SDS011;24468;52.128;9.278;2023-08-17T00:33:01;4.28;;;2.08;;
38717;SDS011;24468;52.128;9.278;2023-08-17T00:35:27;5.70;;;2.00;;
38717;SDS011;24468;52.128;9.278;2023-08-17T00:37:53;2.22;;;1.70;;
38717;SDS011;24468;52.128;9.278;2023-08-17T00:40:19;2.88;;;1.45;;
38717;SDS011;24468;52.128;9.278;2023-08-17T00:42:44;3.78;;;1.83;;
38717;SDS011;24468;52.128;9.278;2023-08-17T00:45:10;4.53;;;2.30;;
38717;SDS011;24468;52.128;9.278;2023-08-17T00:47:35;4.65;;;2.28;;
38717;SDS011;24468;52.128;9.278;2023-08-17T00:50:01;5.05;;;1.83;;
38717;SDS011;24468;52.128;9.278;2023-08-17T00:52:28;5.15;;;2.45;;
38717;SDS011;24468;52.128;9.278;2023-08-17T00:54:55;4.68;;;1.92;;
38717;SDS011;24468;52.128;9.278;2023-08-17T00:57:22;5.03;;;2.15;;
38717;SDS011;24468;52.128;9.278;2023-08-17T00:59:48;6.97;;;2.80;;
38717;SDS011;24468;52.128;9.278;2023-08-17T01:02:14;4.22;;;2.10;;
38717;SDS011;24468;52.128;9.278;2023-08-17T01:04:41;4.90;;;1.80;;
38717;SDS011;24468;52.128;9.278;2023-08-17T01:07:07;2.78;;;2.00;;
38717;SDS011;24468;52.128;9.278;2023-08-17T01:09:32;3.47;;;1.98;;
38717;SDS011;24468;52.128;9.278;2023-08-17T01:14:50;7.32;;;2.58;;
38717;SDS011;24468;52.128;9.278;2023-08-17T01:17:29;2.60;;;2.08;;
38717;SDS011;24468;52.128;9.278;2023-08-17T01:20:04;6.22;;;1.90;;
38717;SDS011;24468;52.128;9.278;2023-08-17T01:22:34;4.82;;;2.25;;
38717;SDS011;24468;52.128;9.278;2023-08-17T01:25:01;8.57;;;2.22;;
38717;SDS011;24468;52.128;9.278;2023-08-17T01:27:34;2.63;;;1.40;;
38717;SDS011;24468;52.128;9.278;2023-08-17T01:30:08;4.60;;;2.08;;
38717;SDS011;24468;52.128;9.278;2023-08-17T01:32:54;3.58;;;2.22;;
38717;SDS011;24468;52.128;9.278;2023-08-17T01:35:30;3.40;;;1.90;;
38717;SDS011;24468;52.128;9.278;2023-08-17T01:38:14;4.22;;;1.77;;
38717;SDS011;24468;52.128;9.278;2023-08-17T01:40:45;2.88;;;1.70;;
38717;SDS011;24468;52.128;9.278;2023-08-17T01:43:14;5.45;;;1.83;;
38717;SDS011;24468;52.128;9.278;2023-08-17T01:45:43;4.32;;;2.20;;
38717;SDS011;24468;52.128;9.278;2023-08-17T01:48:09;4.43;;;1.88;;
38717;SDS011;24468;52.128;9.278;2023-08-17T01:50:34;5.95;;;2.70;;
38717;SDS011;24468;52.128;9.278;2023-08-17T01:53:00;3.65;;;2.08;;
38717;SDS011;24468;52.128;9.278;2023-08-17T01:55:25;3.30;;;1.80;;
38717;SDS011;24468;52.128;9.278;2023-08-17T01:57:52;2.72;;;1.55;;
38717;SDS011;24468;52.128;9.278;2023-08-17T02:00:17;3.97;;;2.28;;
38717;SDS011;24468;52.128;9.278;2023-08-17T02:02:43;2.92;;;1.77;;
38717;SDS011;24468;52.128;9.278;2023-08-17T02:05:08;3.95;;;2.35;;
38717;SDS011;24468;52.128;9.278;2023-08-17T02:07:34;5.55;;;2.00;;
38717;SDS011;24468;52.128;9.278;2023-08-17T02:10:00;6.35;;;2.40;;
38717;SDS011;24468;52.128;9.278;2023-08-17T02:12:25;3.58;;;2.10;;
38717;SDS011;24468;52.128;9.278;2023-08-17T02:14:51;7.65;;;2.60;;
38717;SDS011;24468;52.128;9.278;2023-08-17T02:17:16;3.67;;;2.47;;
38717;SDS011;24468;52.128;9.278;2023-08-17T02:19:43;6.47;;;2.88;;
38717;SDS011;24468;52.128;9.278;2023-08-17T02:22:09;2.60;;;2.40;;
38717;SDS011;24468;52.128;9.278;2023-08-17T02:24:35;5.28;;;2.30;;
38717;SDS011;24468;52.128;9.278;2023-08-17T02:27:00;2.83;;;1.63;;
38717;SDS011;24468;52.128;9.278;2023-08-17T02:29:26;3.83;;;2.17;;
38717;SDS011;24468;52.128;9.278;2023-08-17T02:31:51;5.15;;;1.63;;
38717;SDS011;24468;52.128;9.278;2023-08-17T02:34:17;2.00;;;1.80;;
38717;SDS011;24468;52.128;9.278;2023-08-17T02:36:42;3.45;;;2.05;;
38717;SDS011;24468;52.128;9.278;2023-08-17T02:39:08;3.22;;;1.90;;
38717;SDS011;24468;52.128;9.278;2023-08-17T02:41:33;3.75;;;1.88;;
38717;SDS011;24468;52.128;9.278;2023-08-17T02:43:59;2.38;;;1.60;;
38717;SDS011;24468;52.128;9.278;2023-08-17T02:46:26;2.95;;;1.58;;
38717;SDS011;24468;52.128;9.278;2023-08-17T02:48:51;4.68;;;2.53;;
38717;SDS011;24468;52.128;9.278;2023-08-17T02:51:18;3.17;;;2.10;;
38717;SDS011;24468;52.128;9.278;2023-08-17T02:53:43;2.20;;;1.67;;
38717;SDS011;24468;52.128;9.278;2023-08-17T02:56:09;3.90;;;2.15;;
38717;SDS011;24468;52.128;9.278;2023-08-17T02:58:37;3.63;;;1.40;;
38717;SDS011;24468;52.128;9.278;2023-08-17T03:01:05;6.55;;;2.20;;
38717;SDS011;24468;52.128;9.278;2023-08-17T03:03:32;4.85;;;1.98;;
38717;SDS011;24468;52.128;9.278;2023-08-17T03:05:58;4.47;;;1.75;;
38717;SDS011;24468;52.128;9.278;2023-08-17T03:08:23;5.32;;;2.25;;
38717;SDS011;24468;52.128;9.278;2023-08-17T03:10:49;6.00;;;1.70;;
38717;SDS011;24468;52.128;9.278;2023-08-17T03:13:14;4.45;;;2.20;;
38717;SDS011;24468;52.128;9.278;2023-08-17T03:15:40;4.15;;;1.85;;
38717;SDS011;24468;52.128;9.278;2023-08-17T03:18:06;6.28;;;2.30;;
38717;SDS011;24468;52.128;9.278;2023-08-17T03:20:31;3.25;;;2.03;;
38717;SDS011;24468;52.128;9.278;2023-08-17T03:22:57;3.20;;;2.45;;
38717;SDS011;24468;52.128;9.278;2023-08-17T03:25:22;3.80;;;2.50;;
38717;SDS011;24468;52.128;9.278;2023-08-17T03:27:48;6.85;;;2.67;;
38717;SDS011;24468;52.128;9.278;2023-08-17T03:30:13;4.22;;;2.05;;
38717;SDS011;24468;52.128;9.278;2023-08-17T03:32:39;5.07;;;2.00;;
38717;SDS011;24468;52.128;9.278;2023-08-17T03:35:05;3.35;;;2.35;;
38717;SDS011;24468;52.128;9.278;2023-08-17T03:37:32;4.18;;;2.30;;
38717;SDS011;24468;52.128;9.278;2023-08-17T03:39:57;5.90;;;2.20;;
38717;SDS011;24468;52.128;9.278;2023-08-17T03:42:25;9.32;;;2.50;;
38717;SDS011;24468;52.128;9.278;2023-08-17T03:44:51;3.95;;;2.35;;
38717;SDS011;24468;52.128;9.278;2023-08-17T03:47:17;5.32;;;3.33;;
38717;SDS011;24468;52.128;9.278;2023-08-17T03:49:42;5.63;;;2.50;;
38717;SDS011;24468;52.128;9.278;2023-08-17T03:52:08;4.10;;;2.78;;
38717;SDS011;24468;52.128;9.278;2023-08-17T03:54:33;3.25;;;2.40;;
38717;SDS011;24468;52.128;9.278;2023-08-17T03:56:59;5.93;;;2.28;;
38717;SDS011;24468;52.128;9.278;2023-08-17T03:59:24;2.63;;;2.05;;
38717;SDS011;24468;52.128;9.278;2023-08-17T04:01:50;4.95;;;2.28;;
38717;SDS011;24468;52.128;9.278;2023-08-17T04:04:15;4.18;;;2.72;;
38717;SDS011;24468;52.128;9.278;2023-08-17T04:06:41;3.72;;;2.30;;
38717;SDS011;24468;52.128;9.278;2023-08-17T04:09:07;4.97;;;3.13;;
38717;SDS011;24468;52.128;9.278;2023-08-17T04:11:34;3.97;;;2.25;;
38717;SDS011;24468;52.128;9.278;2023-08-17T04:14:01;4.18;;;2.42;;
38717;SDS011;24468;52.128;9.278;2023-08-17T04:16:27;3.42;;;2.80;;
38717;SDS011;24468;52.128;9.278;2023-08-17T04:18:53;4.22;;;1.92;;
38717;SDS011;24468;52.128;9.278;2023-08-17T04:21:18;5.13;;;3.15;;
38717;SDS011;24468;52.128;9.278;2023-08-17T04:23:45;2.88;;;2.17;;
38717;SDS011;24468;52.128;9.278;2023-08-17T04:26:11;6.18;;;2.15;;
38717;SDS011;24468;52.128;9.278;2023-08-17T04:28:36;5.32;;;2.22;;
38717;SDS011;24468;52.128;9.278;2023-08-17T04:31:02;2.45;;;2.25;;
38717;SDS011;24468;52.128;9.278;2023-08-17T04:33:27;6.93;;;3.03;;
38717;SDS011;24468;52.128;9.278;2023-08-17T04:35:53;6.68;;;2.83;;
38717;SDS011;24468;52.128;9.278;2023-08-17T04:38:18;6.90;;;3.13;;
38717;SDS011;24468;52.128;9.278;2023-08-17T04:40:44;5.57;;;3.47;;
38717;SDS011;24468;52.128;9.278;2023-08-17T04:43:10;3.88;;;2.88;;
38717;SDS011;24468;52.128;9.278;2023-08-17T04:45:36;3.92;;;3.40;;
38717;SDS011;24468;52.128;9.278;2023-08-17T04:48:01;5.57;;;3.13;;
38717;SDS011;24468;52.128;9.278;2023-08-17T04:50:27;5.80;;;3.00;;
38717;SDS011;24468;52.128;9.278;2023-08-17T04:52:53;4.65;;;3.67;;
38717;SDS011;24468;52.128;9.278;2023-08-17T04:55:18;5.38;;;3.50;;
38717;SDS011;24468;52.128;9.278;2023-08-17T04:57:44;4.72;;;3.78;;
38717;SDS011;24468;52.128;9.278;2023-08-17T05:00:10;6.25;;;4.47;;
38717;SDS011;24468;52.128;9.278;2023-08-17T05:02:36;3.25;;;2.95;;
38717;SDS011;24468;52.128;9.278;2023-08-17T05:05:05;4.93;;;4.00;;
38717;SDS011;24468;52.128;9.278;2023-08-17T05:07:33;6.55;;;3.95;;
38717;SDS011;24468;52.128;9.278;2023-08-17T05:09:59;5.05;;;4.45;;
38717;SDS011;24468;52.128;9.278;2023-08-17T05:12:25;10.15;;;5.22;;
38717;SDS011;24468;52.128;9.278;2023-08-17T05:14:51;15.02;;;7.22;;
38717;SDS011;24468;52.128;9.278;2023-08-17T05:17:16;8.23;;;5.55;;
38717;SDS011;24468;52.128;9.278;2023-08-17T05:19:42;7.25;;;6.28;;
38717;SDS011;24468;52.128;9.278;2023-08-17T05:22:11;9.98;;;6.72;;
38717;SDS011;24468;52.128;9.278;2023-08-17T05:24:38;9.95;;;6.53;;
38717;SDS011;24468;52.128;9.278;2023-08-17T05:27:04;8.57;;;6.15;;
38717;SDS011;24468;52.128;9.278;2023-08-17T05:29:30;10.68;;;6.50;;
38717;SDS011;24468;52.128;9.278;2023-08-17T05:31:57;16.40;;;6.65;;
38717;SDS011;24468;52.128;9.278;2023-08-17T05:34:23;12.18;;;7.00;;
38717;SDS011;24468;52.128;9.278;2023-08-17T05:36:49;9.80;;;6.22;;
38717;SDS011;24468;52.128;9.278;2023-08-17T05:39:14;10.88;;;8.60;;
38717;SDS011;24468;52.128;9.278;2023-08-17T05:41:40;8.52;;;7.43;;
38717;SDS011;24468;52.128;9.278;2023-08-17T05:44:05;10.50;;;8.15;;
38717;SDS011;24468;52.128;9.278;2023-08-17T05:46:34;10.18;;;9.18;;
38717;SDS011;24468;52.128;9.278;2023-08-17T05:49:01;11.45;;;9.18;;
38717;SDS011;24468;52.128;9.278;2023-08-17T05:51:27;9.40;;;8.57;;
38717;SDS011;24468;52.128;9.278;2023-08-17T05:53:53;10.00;;;9.00;;
38717;SDS011;24468;52.128;9.278;2023-08-17T05:56:19;11.23;;;9.80;;
38717;SDS011;24468;52.128;9.278;2023-08-17T05:58:44;13.63;;;9.82;;
38717;SDS011;24468;52.128;9.278;2023-08-17T06:01:10;10.27;;;9.20;;
38717;SDS011;24468;52.128;9.278;2023-08-17T06:03:36;10.55;;;9.00;;
38717;SDS011;24468;52.128;9.278;2023-08-17T06:06:03;10.13;;;9.07;;
38717;SDS011;24468;52.128;9.278;2023-08-17T06:08:30;11.00;;;9.25;;
38717;SDS011;24468;52.128;9.278;2023-08-17T06:10:56;13.38;;;9.25;;
38717;SDS011;24468;52.128;9.278;2023-08-17T06:13:21;10.18;;;8.35;;
38717;SDS011;24468;52.128;9.278;2023-08-17T06:15:47;10.23;;;9.23;;
38717;SDS011;24468;52.128;9.278;2023-08-17T06:18:13;13.32;;;8.90;;
38717;SDS011;24468;52.128;9.278;2023-08-17T06:20:39;10.15;;;9.20;;
38717;SDS011;24468;52.128;9.278;2023-08-17T06:23:05;9.73;;;8.15;;
38717;SDS011;24468;52.128;9.278;2023-08-17T06:25:30;9.68;;;8.77;;
38717;SDS011;24468;52.128;9.278;2023-08-17T06:27:56;9.95;;;8.95;;
38717;SDS011;24468;52.128;9.278;2023-08-17T06:30:21;11.02;;;8.45;;
38717;SDS011;24468;52.128;9.278;2023-08-17T06:32:47;10.07;;;8.55;;
38717;SDS011;24468;52.128;9.278;2023-08-17T06:35:15;12.50;;;7.60;;
38717;SDS011;24468;52.128;9.278;2023-08-17T06:37:40;10.57;;;7.80;;
38717;SDS011;24468;52.128;9.278;2023-08-17T06:40:06;9.18;;;8.23;;
38717;SDS011;24468;52.128;9.278;2023-08-17T06:42:34;10.57;;;7.82;;
38717;SDS011;24468;52.128;9.278;2023-08-17T06:44:59;11.32;;;8.18;;
38717;SDS011;24468;52.128;9.278;2023-08-17T06:47:25;9.18;;;7.80;;
38717;SDS011;24468;52.128;9.278;2023-08-17T06:49:51;9.55;;;7.70;;
38717;SDS011;24468;52.128;9.278;2023-08-17T06:52:16;13.57;;;8.93;;
38717;SDS011;24468;52.128;9.278;2023-08-17T06:54:42;12.00;;;9.95;;
38717;SDS011;24468;52.128;9.278;2023-08-17T06:57:07;14.80;;;10.50;;
38717;SDS011;24468;52.128;9.278;2023-08-17T06:59:33;16.33;;;9.45;;
38717;SDS011;24468;52.128;9.278;2023-08-17T07:01:59;17.27;;;10.60;;
38717;SDS011;24468;52.128;9.278;2023-08-17T07:04:24;12.30;;;10.15;;
38717;SDS011;24468;52.128;9.278;2023-08-17T07:06:50;10.23;;;9.18;;
38717;SDS011;24468;52.128;9.278;2023-08-17T07:09:16;10.35;;;8.93;;
38717;SDS011;24468;52.128;9.278;2023-08-17T07:11:41;12.13;;;10.18;;
38717;SDS011;24468;52.128;9.278;2023-08-17T07:14:07;10.57;;;9.48;;
38717;SDS011;24468;52.128;9.278;2023-08-17T07:16:33;16.08;;;9.60;;
38717;SDS011;24468;52.128;9.278;2023-08-17T07:18:58;11.35;;;8.40;;
38717;SDS011;24468;52.128;9.278;2023-08-17T07:21:24;9.70;;;8.75;;
38717;SDS011;24468;52.128;9.278;2023-08-17T07:23:50;12.20;;;9.13;;
38717;SDS011;24468;52.128;9.278;2023-08-17T07:26:16;9.10;;;8.10;;
38717;SDS011;24468;52.128;9.278;2023-08-17T07:28:44;10.75;;;8.40;;
38717;SDS011;24468;52.128;9.278;2023-08-17T07:31:10;10.15;;;8.43;;
38717;SDS011;24468;52.128;9.278;2023-08-17T07:33:36;10.55;;;8.45;;
38717;SDS011;24468;52.128;9.278;2023-08-17T07:36:01;8.95;;;7.88;;
38717;SDS011;24468;52.128;9.278;2023-08-17T07:38:27;13.82;;;7.68;;
38717;SDS011;24468;52.128;9.278;2023-08-17T07:40:54;7.40;;;6.57;;
38717;SDS011;24468;52.128;9.278;2023-08-17T07:43:20;7.55;;;6.55;;
38717;SDS011;24468;52.128;9.278;2023-08-17T07:45:45;8.27;;;7.25;;
38717;SDS011;24468;52.128;9.278;2023-08-17T07:48:11;8.10;;;7.13;;
38717;SDS011;24468;52.128;9.278;2023-08-17T07:50:37;9.15;;;7.85;;
38717;SDS011;24468;52.128;9.278;2023-08-17T07:53:02;8.75;;;7.30;;
38717;SDS011;24468;52.128;9.278;2023-08-17T07:55:28;11.70;;;8.25;;
38717;SDS011;24468;52.128;9.278;2023-08-17T07:57:53;12.63;;;7.88;;
38717;SDS011;24468;52.128;9.278;2023-08-17T08:00:19;13.63;;;8.10;;
38717;SDS011;24468;52.128;9.278;2023-08-17T08:02:45;7.85;;;6.85;;
38717;SDS011;24468;52.128;9.278;2023-08-17T08:05:11;8.82;;;7.72;;
38717;SDS011;24468;52.128;9.278;2023-08-17T08:07:39;8.95;;;7.55;;
38717;SDS011;24468;52.128;9.278;2023-08-17T08:10:04;8.45;;;7.55;;
38717;SDS011;24468;52.128;9.278;2023-08-17T08:12:30;9.27;;;6.15;;
38717;SDS011;24468;52.128;9.278;2023-08-17T08:14:56;7.32;;;6.57;;
38717;SDS011;24468;52.128;9.278;2023-08-17T08:17:21;7.05;;;6.35;;
38717;SDS011;24468;52.128;9.278;2023-08-17T08:19:47;8.50;;;6.13;;
38717;SDS011;24468;52.128;9.278;2023-08-17T08:22:13;7.35;;;6.45;;
38717;SDS011;24468;52.128;9.278;2023-08-17T08:24:38;8.15;;;6.28;;
38717;SDS011;24468;52.128;9.278;2023-08-17T08:27:06;8.05;;;6.63;;
38717;SDS011;24468;52.128;9.278;2023-08-17T08:29:31;9.90;;;7.55;;
38717;SDS011;24468;52.128;9.278;2023-08-17T08:31:58;6.97;;;6.15;;
38717;SDS011;24468;52.128;9.278;2023-08-17T08:34:24;10.10;;;7.18;;
38717;SDS011;24468;52.128;9.278;2023-08-17T08:36:50;9.10;;;7.15;;
38717;SDS011;24468;52.128;9.278;2023-08-17T08:39:16;7.80;;;6.45;;
38717;SDS011;24468;52.128;9.278;2023-08-17T08:41:41;6.70;;;5.97;;
38717;SDS011;24468;52.128;9.278;2023-08-17T08:44:07;6.90;;;5.45;;
38717;SDS011;24468;52.128;9.278;2023-08-17T08:46:32;8.10;;;6.60;;
38717;SDS011;24468;52.128;9.278;2023-08-17T08:48:59;5.07;;;4.57;;
38717;SDS011;24468;52.128;9.278;2023-08-17T08:51:28;6.82;;;5.68;;
38717;SDS011;24468;52.128;9.278;2023-08-17T08:54:01;8.65;;;5.25;;
38717;SDS011;24468;52.128;9.278;2023-08-17T08:56:29;8.02;;;6.05;;
38717;SDS011;24468;52.128;9.278;2023-08-17T08:58:58;4.68;;;4.03;;
38717;SDS011;24468;52.128;9.278;2023-08-17T09:01:28;6.68;;;6.07;;
38717;SDS011;24468;52.128;9.278;2023-08-17T09:03:55;7.28;;;5.65;;
38717;SDS011;24468;52.128;9.278;2023-08-17T09:06:23;6.72;;;6.05;;
38717;SDS011;24468;52.128;9.278;2023-08-17T09:08:51;7.10;;;6.40;;
38717;SDS011;24468;52.128;9.278;2023-08-17T09:11:17;7.55;;;6.07;;
38717;SDS011;24468;52.128;9.278;2023-08-17T09:13:42;6.95;;;5.38;;
38717;SDS011;24468;52.128;9.278;2023-08-17T09:16:08;8.00;;;5.72;;
38717;SDS011;24468;52.128;9.278;2023-08-17T09:18:34;6.50;;;5.28;;
38717;SDS011;24468;52.128;9.278;2023-08-17T09:21:00;5.95;;;5.20;;
38717;SDS011;24468;52.128;9.278;2023-08-17T09:23:26;7.07;;;6.07;;
38717;SDS011;24468;52.128;9.278;2023-08-17T09:25:51;7.68;;;6.97;;
38717;SDS011;24468;52.128;9.278;2023-08-17T09:28:19;6.95;;;6.25;;
38717;SDS011;24468;52.128;9.278;2023-08-17T09:31:18;5.65;;;5.15;;
38717;SDS011;24468;52.128;9.278;2023-08-17T09:33:37;6.30;;;5.70;;
38717;SDS011;24468;52.128;9.278;2023-08-17T09:36:03;6.88;;;6.20;;
38717;SDS011;24468;52.128;9.278;2023-08-17T09:38:28;7.03;;;6.32;;
38717;SDS011;24468;52.128;9.278;2023-08-17T09:40:54;6.95;;;6.32;;
38717;SDS011;24468;52.128;9.278;2023-08-17T09:43:22;8.27;;;7.28;;
38717;SDS011;24468;52.128;9.278;2023-08-17T09:45:48;7.57;;;6.75;;
38717;SDS011;24468;52.128;9.278;2023-08-17T09:48:18;7.13;;;6.32;;
38717;SDS011;24468;52.128;9.278;2023-08-17T09:50:45;8.52;;;6.97;;
38717;SDS011;24468;52.128;9.278;2023-08-17T09:53:16;7.47;;;6.70;;
38717;SDS011;24468;52.128;9.278;2023-08-17T09:55:43;8.90;;;7.00;;
38717;SDS011;24468;52.128;9.278;2023-08-17T09:58:10;10.48;;;7.13;;
38717;SDS011;24468;52.128;9.278;2023-08-17T10:00:42;8.13;;;7.30;;
38717;SDS011;24468;52.128;9.278;2023-08-17T10:03:11;8.45;;;7.50;;
38717;SDS011;24468;52.128;9.278;2023-08-17T10:05:39;9.40;;;7.30;;
38717;SDS011;24468;52.128;9.278;2023-08-17T10:08:07;7.35;;;6.55;;
38717;SDS011;24468;52.128;9.278;2023-08-17T10:10:35;6.18;;;5.15;;
38717;SDS011;24468;52.128;9.278;2023-08-17T10:13:09;5.97;;;5.20;;
38717;SDS011;24468;52.128;9.278;2023-08-17T10:16:06;6.35;;;5.55;;
38717;SDS011;24468;52.128;9.278;2023-08-17T10:21:39;6.40;;;5.57;;
38717;SDS011;24468;52.128;9.278;2023-08-17T10:24:11;7.40;;;6.00;;
38717;SDS011;24468;52.128;9.278;2023-08-17T10:26:37;7.25;;;5.05;;
38717;SDS011;24468;52.128;9.278;2023-08-17T10:29:04;8.13;;;6.05;;
38717;SDS011;24468;52.128;9.278;2023-08-17T10:31:33;5.50;;;5.00;;
38717;SDS011;24468;52.128;9.278;2023-08-17T10:33:59;7.68;;;5.65;;
38717;SDS011;24468;52.128;9.278;2023-08-17T10:36:26;6.07;;;5.47;;
38717;SDS011;24468;52.128;9.278;2023-08-17T10:41:48;6.10;;;5.43;;
38717;SDS011;24468;52.128;9.278;2023-08-17T10:44:17;4.88;;;4.47;;
38717;SDS011;24468;52.128;9.278;2023-08-17T10:50:04;2.38;;;1.23;;
38717;SDS011;24468;52.128;9.278;2023-08-17T10:52:44;2.13;;;1.23;;
38717;SDS011;24468;52.128;9.278;2023-08-17T10:55:12;2.53;;;0.80;;
38717;SDS011;24468;52.128;9.278;2023-08-17T10:57:39;1.80;;;1.10;;
38717;SDS011;24468;52.128;9.278;2023-08-17T11:00:16;1.98;;;1.17;;
38717;SDS011;24468;52.128;9.278;2023-08-17T11:02:52;2.13;;;0.95;;
38717;SDS011;24468;52.128;9.278;2023-08-17T11:11:03;0.80;;;0.80;;
38717;SDS011;24468;52.128;9.278;2023-08-17T11:13:36;1.58;;;0.75;;
38717;SDS011;24468;52.128;9.278;2023-08-17T11:16:04;3.67;;;1.10;;
38717;SDS011;24468;52.128;9.278;2023-08-17T11:18:32;0.85;;;0.77;;
38717;SDS011;24468;52.128;9.278;2023-08-17T11:20:58;0.70;;;0.63;;
38717;SDS011;24468;52.128;9.278;2023-08-17T11:23:28;2.70;;;1.10;;
38717;SDS011;24468;52.128;9.278;2023-08-17T11:25:57;0.60;;;0.60;;
38717;SDS011;24468;52.128;9.278;2023-08-17T11:28:23;0.70;;;0.63;;
38717;SDS011;24468;52.128;9.278;2023-08-17T11:31:05;2.10;;;0.70;;
38717;SDS011;24468;52.128;9.278;2023-08-17T11:33:33;0.77;;;0.60;;
38717;SDS011;24468;52.128;9.278;2023-08-17T11:36:00;0.80;;;0.80;;
38717;SDS011;24468;52.128;9.278;2023-08-17T11:38:31;1.95;;;0.60;;
38717;SDS011;24468;52.128;9.278;2023-08-17T11:41:07;1.17;;;0.70;;
38717;SDS011;24468;52.128;9.278;2023-08-17T11:43:34;2.58;;;0.63;;
38717;SDS011;24468;52.128;9.278;2023-08-17T11:46:00;0.82;;;0.68;;
38717;SDS011;24468;52.128;9.278;2023-08-17T11:48:27;0.60;;;0.57;;
38717;SDS011;24468;52.128;9.278;2023-08-17T11:50:54;2.10;;;0.60;;
38717;SDS011;24468;52.128;9.278;2023-08-17T11:53:23;5.85;;;1.00;;
38717;SDS011;24468;52.128;9.278;2023-08-17T11:55:48;0.90;;;0.90;;
38717;SDS011;24468;52.128;9.278;2023-08-17T11:58:14;1.27;;;0.80;;
38717;SDS011;24468;52.128;9.278;2023-08-17T12:00:41;2.00;;;1.33;;
38717;SDS011;24468;52.128;9.278;2023-08-17T12:03:15;1.25;;;1.17;;
38717;SDS011;24468;52.128;9.278;2023-08-17T12:05:41;1.50;;;1.40;;
38717;SDS011;24468;52.128;9.278;2023-08-17T12:08:09;3.72;;;1.98;;
38717;SDS011;24468;52.128;9.278;2023-08-17T12:10:36;2.85;;;2.65;;
38717;SDS011;24468;52.128;9.278;2023-08-17T12:13:03;3.30;;;3.10;;
38717;SDS011;24468;52.128;9.278;2023-08-17T12:15:32;3.55;;;3.35;;
38717;SDS011;24468;52.128;9.278;2023-08-17T12:18:03;5.80;;;4.57;;
38717;SDS011;24468;52.128;9.278;2023-08-17T12:20:30;3.83;;;3.53;;
38717;SDS011;24468;52.128;9.278;2023-08-17T12:22:58;3.80;;;3.50;;
38717;SDS011;24468;52.128;9.278;2023-08-17T12:25:24;3.90;;;3.47;;
38717;SDS011;24468;52.128;9.278;2023-08-17T12:27:50;3.47;;;3.17;;
38717;SDS011;24468;52.128;9.278;2023-08-17T12:30:29;5.03;;;3.13;;
38717;SDS011;24468;52.128;9.278;2023-08-17T12:32:57;3.45;;;3.15;;
38717;SDS011;24468;52.128;9.278;2023-08-17T12:35:26;4.53;;;3.53;;
38717;SDS011;24468;52.128;9.278;2023-08-17T12:37:51;4.38;;;3.97;;
38717;SDS011;24468;52.128;9.278;2023-08-17T12:40:18;5.18;;;4.70;;
38717;SDS011;24468;52.128;9.278;2023-08-17T12:42:43;4.85;;;4.55;;
38717;SDS011;24468;52.128;9.278;2023-08-17T12:45:09;5.07;;;4.57;;
38717;SDS011;24468;52.128;9.278;2023-08-17T12:47:35;5.13;;;4.72;;
38717;SDS011;24468;52.128;9.278;2023-08-17T12:50:00;5.78;;;5.03;;
38717;SDS011;24468;52.128;9.278;2023-08-17T12:52:27;6.75;;;6.15;;
38717;SDS011;24468;52.128;9.278;2023-08-17T12:54:53;6.50;;;5.97;;
38717;SDS011;24468;52.128;9.278;2023-08-17T12:57:18;6.22;;;5.55;;
38717;SDS011;24468;52.128;9.278;2023-08-17T12:59:44;7.85;;;4.70;;
38717;SDS011;24468;52.128;9.278;2023-08-17T13:02:10;5.60;;;5.10;;
38717;SDS011;24468;52.128;9.278;2023-08-17T13:04:36;5.07;;;4.68;;
38717;SDS011;24468;52.128;9.278;2023-08-17T13:07:01;5.22;;;4.82;;
38717;SDS011;24468;52.128;9.278;2023-08-17T13:09:27;6.63;;;5.72;;
38717;SDS011;24468;52.128;9.278;2023-08-17T13:11:52;5.32;;;4.82;;
38717;SDS011;24468;52.128;9.278;2023-08-17T13:14:18;4.25;;;3.95;;
38717;SDS011;24468;52.128;9.278;2023-08-17T13:16:44;3.95;;;3.65;;
38717;SDS011;24468;52.128;9.278;2023-08-17T13:19:09;4.00;;;3.53;;
38717;SDS011;24468;52.128;9.278;2023-08-17T13:21:35;4.15;;;3.85;;
38717;SDS011;24468;52.128;9.278;2023-08-17T13:24:00;4.40;;;3.85;;
38717;SDS011;24468;52.128;9.278;2023-08-17T13:26:28;4.05;;;3.70;;
38717;SDS011;24468;52.128;9.278;2023-08-17T13:28:54;4.95;;;3.20;;
38717;SDS011;24468;52.128;9.278;2023-08-17T13:31:19;3.63;;;2.92;;
38717;SDS011;24468;52.128;9.278;2023-08-17T13:33:45;3.33;;;3.05;;
38717;SDS011;24468;52.128;9.278;2023-08-17T13:36:10;3.70;;;3.35;;
38717;SDS011;24468;52.128;9.278;2023-08-17T13:38:36;6.70;;;3.50;;
38717;SDS011;24468;52.128;9.278;2023-08-17T13:41:03;8.27;;;3.42;;
38717;SDS011;24468;52.128;9.278;2023-08-17T13:43:29;3.65;;;3.35;;
38717;SDS011;24468;52.128;9.278;2023-08-17T13:45:55;3.63;;;2.95;;
38717;SDS011;24468;52.128;9.278;2023-08-17T13:48:20;4.05;;;3.35;;
38717;SDS011;24468;52.128;9.278;2023-08-17T13:50:46;4.95;;;3.25;;
38717;SDS011;24468;52.128;9.278;2023-08-17T13:53:11;5.07;;;3.88;;
38717;SDS011;24468;52.128;9.278;2023-08-17T13:55:37;4.47;;;4.05;;
38717;SDS011;24468;52.128;9.278;2023-08-17T13:58:03;4.03;;;3.70;;
38717;SDS011;24468;52.128;9.278;2023-08-17T14:00:29;5.18;;;4.20;;
38717;SDS011;24468;52.128;9.278;2023-08-17T14:02:54;4.95;;;4.43;;
38717;SDS011;24468;52.128;9.278;2023-08-17T14:05:20;10.40;;;4.35;;
38717;SDS011;24468;52.128;9.278;2023-08-17T14:07:46;5.03;;;4.63;;
38717;SDS011;24468;52.128;9.278;2023-08-17T14:10:12;5.57;;;5.03;;
38717;SDS011;24468;52.128;9.278;2023-08-17T14:12:38;7.00;;;4.05;;
38717;SDS011;24468;52.128;9.278;2023-08-17T14:15:04;4.38;;;3.97;;
38717;SDS011;24468;52.128;9.278;2023-08-17T14:17:30;5.10;;;4.60;;
38717;SDS011;24468;52.128;9.278;2023-08-17T14:19:56;6.50;;;5.20;;
38717;SDS011;24468;52.128;9.278;2023-08-17T14:22:21;8.23;;;5.32;;
38717;SDS011;24468;52.128;9.278;2023-08-17T14:24:47;6.75;;;5.30;;
38717;SDS011;24468;52.128;9.278;2023-08-17T14:27:12;6.85;;;6.13;;
38717;SDS011;24468;52.128;9.278;2023-08-17T14:29:38;7.10;;;6.05;;
38717;SDS011;24468;52.128;9.278;2023-08-17T14:32:04;6.47;;;5.88;;
38717;SDS011;24468;52.128;9.278;2023-08-17T14:34:29;6.20;;;5.70;;
38717;SDS011;24468;52.128;9.278;2023-08-17T14:36:55;6.63;;;6.03;;
38717;SDS011;24468;52.128;9.278;2023-08-17T14:39:20;7.32;;;6.63;;
38717;SDS011;24468;52.128;9.278;2023-08-17T14:41:46;5.90;;;5.30;;
38717;SDS011;24468;52.128;9.278;2023-08-17T14:44:11;6.85;;;5.70;;
38717;SDS011;24468;52.128;9.278;2023-08-17T14:46:37;5.93;;;5.07;;
38717;SDS011;24468;52.128;9.278;2023-08-17T14:49:04;6.00;;;5.40;;
38717;SDS011;24468;52.128;9.278;2023-08-17T14:51:29;9.15;;;5.80;;
38717;SDS011;24468;52.128;9.278;2023-08-17T14:56:27;5.78;;;5.00;;
38717;SDS011;24468;52.128;9.278;2023-08-17T14:58:52;9.02;;;5.47;;
38717;SDS011;24468;52.128;9.278;2023-08-17T15:01:18;5.03;;;4.57;;
38717;SDS011;24468;52.128;9.278;2023-08-17T15:03:43;7.63;;;5.85;;